Aérodrome :
LOGIN :

S'inscrire | Disclaimer

   EN    FR    IT 

 










Légende :    VFR   VFR Marginal   IFR   IFR Intensif   IFR Très Intensif
Visi : 
Plafond : 
>= 8 km
>= 3000ft
5 à 8 km
1000 à 3000 ft
1500m à 5 km
500 à 1000 ft
800 à 1500m
200 à 500 ft
< 800m
< 200 ft
Symboles :   Orages  Brouillard  Fortes neiges  Fortes précipitations  Vent > 20 kt
SIGMETs :   Divers  Orages  Givrage  Turbulence  Onde Orograph.  Cendres Volcan.







- Altitude de l'aérodrome : 82 ft
- Code IATA : QIE
- Voir les cartes d'approche


LFMI - Istres

DERNIER METAR :
  • 240230Z AUTO 09003KT 7000 BKN016 BKN024 OVC029 08/07 Q1032 TEMPO 4000 BR

METARs EXPIRÉS :
  • 240200Z AUTO 09005KT 7000 BKN017 OVC031 09/07 Q1032 TEMPO 4000 BR
  • 240130Z AUTO 08003KT 7000 BKN017 OVC023 09/08 Q1032 TEMPO 4000 BR
  • 240100Z AUTO 10001KT 5000 BR BKN018 OVC023 07/06 Q1032 NOSIG
  • 240030Z AUTO VRB03KT 6000 SCT019 BKN026 OVC140 07/06 Q1032 TEMPO 4000 BR
  • 240000Z AUTO VRB02KT 7000 SCT029 SCT036 BKN140 07/06 Q1031 TEMPO 4000 BR

TAF TAF LFMI
Valide du 24 à 03h jusqu'au 25 à 03h UTC


240200Z 2403/2503 08005KT 6000 BKN016
TEMPO 2403/2408 4000 BR
TEMPO 2410/2412 31010KT FEW020
BECMG 2413/2414 26010KT CAVOK
BECMG 2418/2420 VRB03KT
TEMPO 2421/2503 4000 BR
Pas de NOTAMs connus pour ce terrain.
1 SIGMET publié pour la FIR Marseille (LFMM) :
 
Onde orographique forte
LFMM SIGMET 5 VALID 240100/240500 LFPW
LFMM MARSEILLE FIR/UIR SEV MTW FCST WI N4330 E00845 - N4315 E00945 - N4115 E00945 - N4115 E00830 - N4200 E00800 - N4330 E00845 SFC/FL200 STNR NC=



MET'MAP, la Météo Aéronautique d'un coup d'oeil ! - Copyright ORBIFLY Décembre 2007 - Disclaimer

ORBIFLY MET'MAP TEAM :

Programmation & Développement : Alexandra Zaïnal
Conception & Développement : Baudouin d'Aumeries
Co-Programmation & Développement : Marc-Olivier Méhu
Soutien technique & logistique : Manuel Goepfert

Contact : metmap@orbifly.com




SOURCES & CREDITS :

   NOAA